createdAt,value
2022-09-30T00:01:34.848Z,52.35
2022-09-30T00:04:03.441Z,52.27
2022-09-30T00:06:35.258Z,52.41
2022-09-30T00:09:03.774Z,52.54
2022-09-30T00:11:33.981Z,52.31
2022-09-30T00:14:02.314Z,52.41
2022-09-30T00:16:31.751Z,52.22
2022-09-30T00:19:00.794Z,52.22
2022-09-30T00:21:30.624Z,52.10
2022-09-30T00:24:00.365Z,52.37
2022-09-30T00:26:28.607Z,52.46
2022-09-30T00:28:59.077Z,52.07
2022-09-30T00:31:28.416Z,52.11
2022-09-30T00:34:09.135Z,52.27
2022-09-30T00:36:39.185Z,52.44
2022-09-30T00:39:09.412Z,52.12
2022-09-30T00:41:38.639Z,52.62
2022-09-30T00:44:44.517Z,52.19
2022-09-30T00:47:28.706Z,52.30
2022-09-30T00:49:57.234Z,52.26
2022-09-30T00:52:25.609Z,52.19
2022-09-30T00:54:56.070Z,52.40
2022-09-30T00:57:24.369Z,52.48
2022-09-30T00:59:52.594Z,52.27
2022-09-30T01:02:20.918Z,52.43
2022-09-30T01:04:49.230Z,52.56
2022-09-30T01:07:20.949Z,52.28
2022-09-30T01:09:49.314Z,52.42
2022-09-30T01:12:21.566Z,52.36
2022-09-30T01:14:53.319Z,52.60
2022-09-30T01:17:24.606Z,52.62
2022-09-30T01:20:13.123Z,52.44
2022-09-30T01:22:42.885Z,52.43
2022-09-30T01:25:20.166Z,52.56
2022-09-30T01:27:57.170Z,52.54
2022-09-30T01:30:34.600Z,52.35
2022-09-30T01:33:13.510Z,52.56
2022-09-30T01:35:51.262Z,52.53
2022-09-30T01:38:24.959Z,52.28
2022-09-30T01:40:56.903Z,52.50
2022-09-30T01:43:29.883Z,52.22
2022-09-30T01:46:00.654Z,52.58
2022-09-30T01:48:32.694Z,52.47
2022-09-30T01:51:01.873Z,52.67
2022-09-30T01:53:33.124Z,52.26
2022-09-30T01:56:03.053Z,52.70
2022-09-30T01:58:38.581Z,52.28
2022-09-30T02:01:10.232Z,52.50
2022-09-30T02:03:39.770Z,52.55
2022-09-30T02:06:09.918Z,52.29
2022-09-30T02:08:41.751Z,52.64
2022-09-30T02:11:12.238Z,52.51
2022-09-30T02:13:42.996Z,52.11
2022-09-30T02:16:14.895Z,52.64
2022-09-30T02:18:44.375Z,52.66
2022-09-30T02:21:12.853Z,52.36
2022-09-30T02:23:42.707Z,52.48
2022-09-30T02:26:13.083Z,52.51
2022-09-30T02:28:43.457Z,52.43
2022-09-30T02:31:13.387Z,52.50
2022-09-30T02:33:43.662Z,52.34
2022-09-30T02:36:14.146Z,52.49
2022-09-30T02:38:43.490Z,52.58
2022-09-30T02:41:13.243Z,52.84
2022-09-30T02:43:42.234Z,52.38
2022-09-30T02:46:16.111Z,52.60
2022-09-30T02:48:45.566Z,52.60
2022-09-30T02:51:17.080Z,52.50
2022-09-30T02:53:47.558Z,52.33
2022-09-30T02:56:20.952Z,52.62
2022-09-30T02:58:49.261Z,52.29
2022-09-30T03:01:18.969Z,52.24
2022-09-30T03:03:48.195Z,52.68
2022-09-30T03:06:16.444Z,52.66
2022-09-30T03:08:45.037Z,52.45
2022-09-30T03:11:15.334Z,52.65
2022-09-30T03:14:07.619Z,52.39
2022-09-30T03:16:45.909Z,52.51
2022-09-30T03:19:23.175Z,52.56
2022-09-30T03:22:01.919Z,52.66
2022-09-30T03:24:43.277Z,52.62
2022-09-30T03:27:15.756Z,52.69
2022-09-30T03:29:48.130Z,52.24
2022-09-30T03:32:26.566Z,52.44
2022-09-30T03:35:02.418Z,52.38
2022-09-30T03:37:34.063Z,52.78
2022-09-30T03:40:04.060Z,52.48
2022-09-30T03:42:36.272Z,52.30
2022-09-30T03:45:06.542Z,52.68
2022-09-30T03:47:37.330Z,52.56
2022-09-30T03:50:08.638Z,52.75
2022-09-30T03:52:36.938Z,52.60
2022-09-30T03:55:06.561Z,52.66
2022-09-30T03:57:34.838Z,52.40
2022-09-30T04:00:03.666Z,52.37
2022-09-30T04:02:33.352Z,52.66
2022-09-30T04:05:03.028Z,52.57
2022-09-30T04:07:31.349Z,52.58
2022-09-30T04:09:59.602Z,52.93
2022-09-30T04:12:27.922Z,52.71
2022-09-30T04:14:56.186Z,52.76
2022-09-30T04:17:24.596Z,52.63
2022-09-30T04:19:52.874Z,52.70
2022-09-30T04:22:26.276Z,52.49
2022-09-30T04:24:54.885Z,52.30
2022-09-30T04:27:23.401Z,52.51
2022-09-30T04:29:51.850Z,52.28
2022-09-30T04:32:20.085Z,52.73
2022-09-30T04:34:48.622Z,52.57
2022-09-30T04:37:16.885Z,52.50
2022-09-30T04:39:46.616Z,52.50
2022-09-30T04:42:14.962Z,52.27
2022-09-30T04:44:43.353Z,52.42
2022-09-30T04:47:11.644Z,52.33
2022-09-30T04:49:40.082Z,52.38
2022-09-30T04:52:08.486Z,51.58
2022-09-30T04:54:36.758Z,51.36
2022-09-30T04:57:07.300Z,51.57
2022-09-30T04:59:35.720Z,51.62
2022-09-30T05:02:04.005Z,51.77
2022-09-30T05:04:33.628Z,50.85
2022-09-30T05:07:03.845Z,50.90
2022-09-30T05:09:32.311Z,51.57
2022-09-30T05:12:02.422Z,51.39
2022-09-30T05:14:32.436Z,51.30
2022-09-30T05:17:01.086Z,51.39
2022-09-30T05:19:29.942Z,51.18
2022-09-30T05:21:58.277Z,51.33
2022-09-30T05:24:26.698Z,51.22
2022-09-30T05:26:54.953Z,51.40
2022-09-30T05:29:23.349Z,50.94
2022-09-30T05:31:53.135Z,51.17
2022-09-30T05:34:21.563Z,51.11
2022-09-30T05:36:49.981Z,51.00
2022-09-30T05:39:18.411Z,50.77
2022-09-30T05:41:46.600Z,51.10
2022-09-30T05:44:15.472Z,50.98
2022-09-30T05:46:44.452Z,51.17
2022-09-30T05:49:14.562Z,51.17
2022-09-30T05:51:42.952Z,51.24
2022-09-30T05:54:11.230Z,51.22
2022-09-30T05:56:39.547Z,51.08
2022-09-30T05:59:07.813Z,51.18
2022-09-30T06:01:36.139Z,51.30
2022-09-30T06:04:04.513Z,51.18
2022-09-30T06:06:34.398Z,51.02
2022-09-30T06:09:02.711Z,51.23
2022-09-30T06:11:31.921Z,51.30
2022-09-30T06:14:00.280Z,51.25
2022-09-30T06:16:28.668Z,50.98
2022-09-30T06:18:56.903Z,51.55
2022-09-30T06:21:25.197Z,51.37
2022-09-30T06:23:54.863Z,51.16
2022-09-30T06:26:23.146Z,51.46
2022-09-30T06:28:51.926Z,51.40
2022-09-30T06:31:20.373Z,51.56
2022-09-30T06:33:48.625Z,50.99
2022-09-30T06:36:17.374Z,51.34
2022-09-30T06:38:45.703Z,51.39
2022-09-30T06:41:15.762Z,51.48
2022-09-30T06:43:55.658Z,51.38
2022-09-30T06:46:31.745Z,50.98
2022-09-30T06:49:11.219Z,51.21
2022-09-30T06:51:42.310Z,51.25
2022-09-30T06:54:11.053Z,51.39
2022-09-30T06:56:40.793Z,50.78
2022-09-30T06:59:09.131Z,51.00
2022-09-30T07:01:37.391Z,50.87
2022-09-30T07:04:09.760Z,51.04
2022-09-30T07:06:39.221Z,51.11
2022-09-30T07:09:07.931Z,51.22
2022-09-30T07:11:36.765Z,50.96
2022-09-30T07:14:06.502Z,51.14
2022-09-30T07:16:35.334Z,50.97
2022-09-30T07:19:03.730Z,50.75
2022-09-30T07:21:32.339Z,51.21
2022-09-30T07:24:02.049Z,50.82
2022-09-30T07:26:31.273Z,50.90
2022-09-30T07:29:00.272Z,50.80
2022-09-30T07:31:34.884Z,50.74
2022-09-30T07:34:04.223Z,50.51
2022-09-30T07:36:34.032Z,50.61
2022-09-30T07:39:06.012Z,50.69
2022-09-30T07:41:35.916Z,50.57
2022-09-30T07:44:06.715Z,50.96
2022-09-30T07:46:39.398Z,50.77
2022-09-30T07:49:09.261Z,50.35
2022-09-30T07:51:39.235Z,50.46
2022-09-30T07:54:09.065Z,50.87
2022-09-30T07:57:08.044Z,50.77
2022-09-30T07:59:27.396Z,50.64
2022-09-30T08:01:57.591Z,50.78
2022-09-30T08:04:26.289Z,50.55
2022-09-30T08:06:55.899Z,50.22
2022-09-30T08:09:25.399Z,50.68
2022-09-30T08:11:53.884Z,50.91
2022-09-30T08:14:23.138Z,50.63
2022-09-30T08:16:51.636Z,50.94
2022-09-30T08:19:22.283Z,50.86
2022-09-30T08:21:50.711Z,50.87
2022-09-30T08:24:19.038Z,50.69
2022-09-30T08:26:47.517Z,50.62
2022-09-30T08:29:24.927Z,50.77
2022-09-30T08:31:58.564Z,50.72
2022-09-30T08:34:33.913Z,50.55
2022-09-30T08:37:06.318Z,50.69
2022-09-30T08:39:37.396Z,50.55
2022-09-30T08:42:45.315Z,50.55
2022-09-30T08:45:20.385Z,50.16
2022-09-30T08:47:51.333Z,50.42
2022-09-30T08:50:24.936Z,50.36
2022-09-30T08:52:55.222Z,50.73
2022-09-30T08:55:24.827Z,50.72
2022-09-30T08:57:53.509Z,50.87
2022-09-30T09:00:22.643Z,50.61
2022-09-30T09:02:51.961Z,50.91
2022-09-30T09:05:28.598Z,50.92
2022-09-30T09:08:02.789Z,50.73
2022-09-30T09:10:35.761Z,50.57
2022-09-30T09:13:07.910Z,50.65
2022-09-30T09:15:47.326Z,50.29
2022-09-30T09:18:36.316Z,49.90
2022-09-30T09:21:14.954Z,49.66
2022-09-30T09:23:43.216Z,49.71
2022-09-30T09:26:12.151Z,49.93
2022-09-30T09:28:42.060Z,50.12
2022-09-30T09:31:14.499Z,49.81
2022-09-30T09:33:42.946Z,50.08
2022-09-30T09:36:19.811Z,50.29
2022-09-30T09:38:58.598Z,50.28
2022-09-30T09:41:32.660Z,50.18
2022-09-30T09:44:03.178Z,50.00
2022-09-30T09:46:32.622Z,50.25
2022-09-30T09:49:41.785Z,50.37
2022-09-30T09:52:24.559Z,49.97
2022-09-30T09:54:57.006Z,50.25
2022-09-30T09:57:27.921Z,50.37
2022-09-30T09:59:57.449Z,50.16
2022-09-30T10:02:26.767Z,50.25
2022-09-30T10:05:00.301Z,50.70
2022-09-30T10:07:30.866Z,50.74
2022-09-30T10:10:12.515Z,50.94
2022-09-30T10:12:41.129Z,50.62
2022-09-30T10:15:20.410Z,50.57
2022-09-30T10:17:53.235Z,50.61
2022-09-30T10:20:26.059Z,51.03
2022-09-30T10:23:09.570Z,50.92
2022-09-30T10:25:37.950Z,50.94
2022-09-30T10:28:21.648Z,51.13
2022-09-30T10:30:51.007Z,50.75
2022-09-30T10:33:25.496Z,50.78
2022-09-30T10:36:00.608Z,50.95
2022-09-30T10:38:32.248Z,50.88
2022-09-30T10:41:00.651Z,50.85
2022-09-30T10:43:31.517Z,51.21
2022-09-30T10:46:24.742Z,51.06
2022-09-30T10:48:52.158Z,51.11
2022-09-30T10:51:25.084Z,51.04
2022-09-30T10:53:55.166Z,50.93
2022-09-30T10:56:45.065Z,50.98
2022-09-30T10:59:29.807Z,50.82
2022-09-30T11:02:00.061Z,50.82
2022-09-30T11:04:32.283Z,50.98
2022-09-30T11:07:04.863Z,50.92
2022-09-30T11:09:37.943Z,51.07
2022-09-30T11:12:11.526Z,51.40
2022-09-30T11:14:43.459Z,50.93
2022-09-30T11:17:18.041Z,51.53
2022-09-30T11:19:51.273Z,51.01
2022-09-30T11:22:29.607Z,51.13
2022-09-30T11:24:59.507Z,51.22
2022-09-30T11:27:34.175Z,51.47
2022-09-30T11:30:09.930Z,51.38
2022-09-30T11:32:54.430Z,51.29
2022-09-30T11:35:29.885Z,51.51
2022-09-30T11:38:06.022Z,51.25
2022-09-30T11:40:39.486Z,51.59
2022-09-30T11:43:15.579Z,51.38
2022-09-30T11:45:58.664Z,51.67
2022-09-30T11:48:35.499Z,51.38
2022-09-30T11:51:09.122Z,51.48
2022-09-30T11:53:43.642Z,51.46
2022-09-30T11:56:20.962Z,51.61
2022-09-30T11:58:50.449Z,51.84
2022-09-30T12:01:22.526Z,52.06
2022-09-30T12:03:56.274Z,51.56
2022-09-30T12:06:28.237Z,51.55
2022-09-30T12:08:58.229Z,51.55
2022-09-30T12:11:34.145Z,51.71
2022-09-30T12:14:04.909Z,51.63
2022-09-30T12:16:33.946Z,51.55
2022-09-30T12:19:05.802Z,51.61
2022-09-30T12:21:37.517Z,51.66
2022-09-30T12:24:08.477Z,51.71
2022-09-30T12:26:38.391Z,51.60
2022-09-30T12:29:25.714Z,51.32
2022-09-30T12:32:10.024Z,51.56
2022-09-30T12:34:46.149Z,51.77
2022-09-30T12:37:22.670Z,51.84
2022-09-30T12:40:06.802Z,51.90
2022-09-30T12:43:30.353Z,51.52
2022-09-30T12:46:15.118Z,51.80
2022-09-30T12:48:45.227Z,51.90
2022-09-30T12:51:13.972Z,51.89
2022-09-30T12:53:42.174Z,51.98
2022-09-30T12:56:11.735Z,51.86
2022-09-30T12:58:44.158Z,51.89
2022-09-30T13:01:17.027Z,51.98
2022-09-30T13:03:47.830Z,52.12
2022-09-30T13:06:16.321Z,51.96
2022-09-30T13:08:47.395Z,51.61
2022-09-30T13:11:40.504Z,51.58
2022-09-30T13:14:26.200Z,51.71
2022-09-30T13:17:21.947Z,51.67
2022-09-30T13:19:51.948Z,52.03
2022-09-30T13:22:57.510Z,51.99
2022-09-30T13:25:25.711Z,51.50
2022-09-30T13:27:55.652Z,51.98
2022-09-30T13:30:34.590Z,51.89
2022-09-30T13:33:34.235Z,51.66
2022-09-30T13:36:10.342Z,51.50
2022-09-30T13:38:40.602Z,51.61
2022-09-30T13:41:20.633Z,51.88
2022-09-30T13:43:53.653Z,51.86
2022-09-30T13:46:26.362Z,51.80
2022-09-30T13:48:58.778Z,51.63
2022-09-30T13:51:28.777Z,51.80
2022-09-30T13:53:59.787Z,51.69
2022-09-30T13:56:29.466Z,51.46
2022-09-30T13:59:21.906Z,51.00
2022-09-30T14:02:04.003Z,51.66
2022-09-30T14:05:01.088Z,51.48
2022-09-30T14:07:40.150Z,51.35
2022-09-30T14:10:25.528Z,51.67
2022-09-30T14:13:03.165Z,51.83
2022-09-30T14:15:57.481Z,51.59
2022-09-30T14:18:54.706Z,51.54
2022-09-30T14:21:39.826Z,51.88
2022-09-30T14:24:12.382Z,51.76
2022-09-30T14:26:53.023Z,52.07
2022-09-30T14:29:25.013Z,52.18
2022-09-30T14:31:53.368Z,51.99
2022-09-30T14:34:22.175Z,51.88
2022-09-30T14:36:52.030Z,52.36
2022-09-30T14:39:21.442Z,52.19
2022-09-30T14:41:51.903Z,51.81
2022-09-30T14:44:20.718Z,52.17
2022-09-30T14:46:49.460Z,52.12
2022-09-30T14:49:19.072Z,52.19
2022-09-30T14:51:48.644Z,52.00
2022-09-30T14:54:19.755Z,51.78
2022-09-30T14:56:48.359Z,51.88
2022-09-30T14:59:22.501Z,51.83
2022-09-30T15:01:51.755Z,52.50
2022-09-30T15:04:21.301Z,52.44
2022-09-30T15:06:50.942Z,52.72
2022-09-30T15:09:31.587Z,52.36
2022-09-30T15:12:05.087Z,52.37
2022-09-30T15:14:34.174Z,52.52
2022-09-30T15:17:06.064Z,52.42
2022-09-30T15:19:35.439Z,51.99
2022-09-30T15:22:04.643Z,52.06
2022-09-30T15:24:34.510Z,51.82
2022-09-30T15:27:02.956Z,51.81
2022-09-30T15:29:31.311Z,51.87
2022-09-30T15:32:02.382Z,51.91
2022-09-30T15:34:30.927Z,51.85
2022-09-30T15:37:04.665Z,51.85
2022-09-30T15:39:48.979Z,51.99
2022-09-30T15:42:30.433Z,51.58
2022-09-30T15:44:59.437Z,51.96
2022-09-30T15:47:27.851Z,51.94
2022-09-30T15:49:56.094Z,51.96
2022-09-30T15:52:36.587Z,52.03
2022-09-30T15:55:37.050Z,51.89
2022-09-30T15:58:05.310Z,52.46
2022-09-30T16:00:43.044Z,52.17
2022-09-30T16:03:32.691Z,52.02
2022-09-30T16:06:09.283Z,52.09
2022-09-30T16:08:44.338Z,52.44
2022-09-30T16:11:20.625Z,52.01
2022-09-30T16:13:49.107Z,52.44
2022-09-30T16:16:21.418Z,52.56
2022-09-30T16:18:49.987Z,52.14
2022-09-30T16:21:44.389Z,52.36
2022-09-30T16:24:48.798Z,52.14
2022-09-30T16:27:39.943Z,52.49
2022-09-30T16:30:08.701Z,52.30
2022-09-30T16:32:41.080Z,52.91
2022-09-30T16:35:16.573Z,52.98
2022-09-30T16:37:45.359Z,52.27
2022-09-30T16:40:31.562Z,52.74
2022-09-30T16:43:04.363Z,52.68
2022-09-30T16:45:35.221Z,52.57
2022-09-30T16:48:03.789Z,52.88
2022-09-30T16:50:35.105Z,53.11
2022-09-30T16:53:03.277Z,52.68
2022-09-30T16:55:31.634Z,53.15
2022-09-30T16:58:04.762Z,53.24
2022-09-30T17:00:33.042Z,52.84
2022-09-30T17:03:01.264Z,53.45
2022-09-30T17:05:29.530Z,53.12
2022-09-30T17:07:59.271Z,53.22
2022-09-30T17:10:29.119Z,53.05
2022-09-30T17:12:57.651Z,52.98
2022-09-30T17:15:28.199Z,52.94
2022-09-30T17:17:56.626Z,53.29
2022-09-30T17:20:24.914Z,53.30
2022-09-30T17:22:53.234Z,53.20
2022-09-30T17:25:21.695Z,53.44
2022-09-30T17:27:50.701Z,53.36
2022-09-30T17:30:19.376Z,53.58
2022-09-30T17:32:49.114Z,53.42
2022-09-30T17:35:17.521Z,53.61
2022-09-30T17:37:46.653Z,53.55
2022-09-30T17:40:33.134Z,53.46
2022-09-30T17:43:11.657Z,53.55
2022-09-30T17:45:41.350Z,53.42
2022-09-30T17:48:11.939Z,53.24
2022-09-30T17:50:40.889Z,53.73
2022-09-30T17:53:09.428Z,53.43
2022-09-30T17:55:37.673Z,53.45
2022-09-30T17:58:06.153Z,53.47
2022-09-30T18:00:34.351Z,53.81
2022-09-30T18:03:03.474Z,53.73
2022-09-30T18:05:33.180Z,53.48
2022-09-30T18:08:01.712Z,53.40
2022-09-30T18:10:30.259Z,53.87
2022-09-30T18:12:59.956Z,53.58
2022-09-30T18:15:28.604Z,53.78
2022-09-30T18:17:57.783Z,53.75
2022-09-30T18:20:26.248Z,53.59
2022-09-30T18:22:56.949Z,53.44
2022-09-30T18:25:26.411Z,53.61
2022-09-30T18:27:56.339Z,53.76
2022-09-30T18:30:25.434Z,53.75
2022-09-30T18:32:54.533Z,53.27
2022-09-30T18:35:24.673Z,53.55
2022-09-30T18:37:55.464Z,53.71
2022-09-30T18:40:26.269Z,53.63
2022-09-30T18:42:58.690Z,53.93
2022-09-30T18:45:27.663Z,53.71
2022-09-30T18:47:57.035Z,53.71
2022-09-30T18:50:26.858Z,53.48
2022-09-30T18:52:57.068Z,53.68
2022-09-30T18:55:25.967Z,53.51
2022-09-30T18:57:55.685Z,54.09
2022-09-30T19:00:24.078Z,53.78
2022-09-30T19:02:53.437Z,53.90
2022-09-30T19:05:22.408Z,53.84
2022-09-30T19:07:50.761Z,53.21
2022-09-30T19:10:20.499Z,53.67
2022-09-30T19:12:50.090Z,53.66
2022-09-30T19:15:18.818Z,53.72
2022-09-30T19:17:47.103Z,53.99
2022-09-30T19:20:16.733Z,54.28
2022-09-30T19:22:45.039Z,54.12
2022-09-30T19:25:13.265Z,54.11
2022-09-30T19:27:43.430Z,54.19
2022-09-30T19:30:12.949Z,54.05
2022-09-30T19:32:41.291Z,53.80
2022-09-30T19:35:12.088Z,54.03
2022-09-30T19:37:55.795Z,54.08
2022-09-30T19:40:28.390Z,54.03
2022-09-30T19:42:58.105Z,54.35
2022-09-30T19:45:27.417Z,54.06
2022-09-30T19:47:56.897Z,54.07
2022-09-30T19:50:25.237Z,54.09
2022-09-30T19:52:57.259Z,54.32
2022-09-30T19:55:26.634Z,54.20
2022-09-30T19:57:54.930Z,54.24
2022-09-30T20:00:24.714Z,54.18
2022-09-30T20:02:52.893Z,54.28
2022-09-30T20:05:21.680Z,54.22
2022-09-30T20:07:51.373Z,54.14
2022-09-30T20:10:20.134Z,53.72
2022-09-30T20:12:48.489Z,53.97
2022-09-30T20:15:34.249Z,54.18
2022-09-30T20:18:04.035Z,54.17
2022-09-30T20:20:42.867Z,54.10
2022-09-30T20:23:11.081Z,54.08
2022-09-30T20:25:39.555Z,53.82
2022-09-30T20:28:07.994Z,54.03
2022-09-30T20:30:39.550Z,54.17
2022-09-30T20:33:09.277Z,54.16
2022-09-30T20:35:37.814Z,54.20
2022-09-30T20:38:06.925Z,54.03
2022-09-30T20:40:35.355Z,54.02
2022-09-30T20:43:04.378Z,54.17
2022-09-30T20:45:32.681Z,54.01
2022-09-30T20:48:01.114Z,54.11
2022-09-30T20:50:36.550Z,54.25
2022-09-30T20:53:06.905Z,54.04
2022-09-30T20:55:36.663Z,54.01
2022-09-30T20:58:05.681Z,53.83
2022-09-30T21:00:34.650Z,53.70
2022-09-30T21:03:03.056Z,53.92
2022-09-30T21:05:32.800Z,53.93
2022-09-30T21:08:02.349Z,53.66
2022-09-30T21:10:31.814Z,53.68
2022-09-30T21:13:02.239Z,54.01
2022-09-30T21:15:31.344Z,54.04
2022-09-30T21:17:59.818Z,53.93
2022-09-30T21:20:28.051Z,53.73
2022-09-30T21:22:57.756Z,53.91
2022-09-30T21:25:26.066Z,53.80
2022-09-30T21:27:54.553Z,54.16
2022-09-30T21:30:23.599Z,53.80
2022-09-30T21:32:51.914Z,53.74
2022-09-30T21:35:21.174Z,53.96
2022-09-30T21:37:50.005Z,53.59
2022-09-30T21:40:20.322Z,53.78
2022-09-30T21:42:48.827Z,53.75
2022-09-30T21:45:18.799Z,53.74
2022-09-30T21:47:47.111Z,53.97
2022-09-30T21:50:15.419Z,53.93
2022-09-30T21:52:45.794Z,53.55
2022-09-30T21:55:15.108Z,53.71
2022-09-30T21:57:46.027Z,53.83
2022-09-30T22:00:14.512Z,53.81
2022-09-30T22:02:42.748Z,53.62
2022-09-30T22:05:11.039Z,53.75
2022-09-30T22:07:39.371Z,53.87
2022-09-30T22:10:09.126Z,54.01
2022-09-30T22:12:38.410Z,53.75
2022-09-30T22:15:09.437Z,53.73
2022-09-30T22:17:37.874Z,53.58
2022-09-30T22:20:07.046Z,53.71
2022-09-30T22:22:35.709Z,53.62
2022-09-30T22:25:03.978Z,53.70
2022-09-30T22:27:32.481Z,53.68
2022-09-30T22:30:00.778Z,53.71
2022-09-30T22:32:30.414Z,53.75
2022-09-30T22:35:15.850Z,53.76
2022-09-30T22:38:01.688Z,53.55
2022-09-30T22:40:29.990Z,54.08
2022-09-30T22:42:58.162Z,53.75
2022-09-30T22:45:26.839Z,53.67
2022-09-30T22:47:57.053Z,53.63
2022-09-30T22:50:28.817Z,53.98
2022-09-30T22:52:58.162Z,53.44
2022-09-30T22:55:26.455Z,53.80
2022-09-30T22:57:54.687Z,53.68
2022-09-30T23:00:22.923Z,53.62
2022-09-30T23:02:52.998Z,53.58
2022-09-30T23:05:22.786Z,53.70
2022-09-30T23:07:51.206Z,54.06
2022-09-30T23:10:19.495Z,53.80
2022-09-30T23:12:47.818Z,53.82
2022-09-30T23:15:16.238Z,53.73
2022-09-30T23:17:44.457Z,53.52
2022-09-30T23:20:12.929Z,53.68
2022-09-30T23:22:42.879Z,53.92
2022-09-30T23:25:11.488Z,53.83
2022-09-30T23:27:39.759Z,53.88
2022-09-30T23:30:08.824Z,53.98
2022-09-30T23:32:37.970Z,53.85
2022-09-30T23:35:06.857Z,53.88
2022-09-30T23:37:35.297Z,53.77
2022-09-30T23:40:05.367Z,53.79
2022-09-30T23:42:33.802Z,53.91
2022-09-30T23:45:01.988Z,53.83
2022-09-30T23:47:30.435Z,53.76
2022-09-30T23:49:58.664Z,53.62
2022-09-30T23:52:26.918Z,53.74
2022-09-30T23:54:55.522Z,53.72
2022-09-30T23:57:25.306Z,53.69
2022-09-30T23:59:53.618Z,53.76
